sensor_id;sensor_type;location;lat;lon;timestamp;pressure;altitude;pressure_sealevel;temperature;humidity
61039;BME280;46919;45.816;3.104;2023-11-21T00:00:24;97605.16;;;8.28;88.63
61039;BME280;46919;45.816;3.104;2023-11-21T00:02:50;97598.28;;;8.32;87.95
61039;BME280;46919;45.816;3.104;2023-11-21T00:05:16;97588.78;;;8.30;87.81
61039;BME280;46919;45.816;3.104;2023-11-21T00:07:41;97584.44;;;8.29;88.33
61039;BME280;46919;45.816;3.104;2023-11-21T00:10:08;97596.00;;;8.36;87.75
61039;BME280;46919;45.816;3.104;2023-11-21T00:12:35;97605.66;;;8.50;85.89
61039;BME280;46919;45.816;3.104;2023-11-21T00:15:00;97609.00;;;8.46;86.17
61039;BME280;46919;45.816;3.104;2023-11-21T00:17:26;97589.13;;;8.40;87.15
61039;BME280;46919;45.816;3.104;2023-11-21T00:19:52;97595.34;;;8.47;86.65
61039;BME280;46919;45.816;3.104;2023-11-21T00:22:18;97603.41;;;8.47;86.76
61039;BME280;46919;45.816;3.104;2023-11-21T00:24:43;97604.44;;;8.46;87.34
61039;BME280;46919;45.816;3.104;2023-11-21T00:27:08;97602.34;;;8.48;87.21
61039;BME280;46919;45.816;3.104;2023-11-21T00:29:34;97609.41;;;8.49;87.36
61039;BME280;46919;45.816;3.104;2023-11-21T00:31:59;97615.22;;;8.46;87.50
61039;BME280;46919;45.816;3.104;2023-11-21T00:34:25;97607.94;;;8.47;88.03
61039;BME280;46919;45.816;3.104;2023-11-21T00:36:50;97617.31;;;8.44;88.21
61039;BME280;46919;45.816;3.104;2023-11-21T00:39:15;97621.44;;;8.40;87.90
61039;BME280;46919;45.816;3.104;2023-11-21T00:41:41;97625.19;;;8.39;87.70
61039;BME280;46919;45.816;3.104;2023-11-21T00:44:07;97607.97;;;8.40;87.68
61039;BME280;46919;45.816;3.104;2023-11-21T00:46:32;97607.97;;;8.40;88.76
61039;BME280;46919;45.816;3.104;2023-11-21T00:48:57;97607.38;;;8.38;88.91
61039;BME280;46919;45.816;3.104;2023-11-21T00:51:23;97599.88;;;8.40;88.49
61039;BME280;46919;45.816;3.104;2023-11-21T00:53:49;97606.94;;;8.41;88.33
61039;BME280;46919;45.816;3.104;2023-11-21T00:56:15;97581.25;;;8.39;88.81
61039;BME280;46919;45.816;3.104;2023-11-21T00:58:40;97577.16;;;8.36;89.28
61039;BME280;46919;45.816;3.104;2023-11-21T01:01:11;97575.88;;;8.39;89.23
61039;BME280;46919;45.816;3.104;2023-11-21T01:03:37;97577.16;;;8.36;89.30
61039;BME280;46919;45.816;3.104;2023-11-21T01:06:02;97573.41;;;8.37;89.04
61039;BME280;46919;45.816;3.104;2023-11-21T01:08:28;97558.69;;;8.40;88.80
61039;BME280;46919;45.816;3.104;2023-11-21T01:10:54;97555.41;;;8.38;89.24
61039;BME280;46919;45.816;3.104;2023-11-21T01:13:20;97564.72;;;8.35;89.81
61039;BME280;46919;45.816;3.104;2023-11-21T01:15:45;97556.06;;;8.33;89.43
61039;BME280;46919;45.816;3.104;2023-11-21T01:18:11;97559.78;;;8.32;89.61
61039;BME280;46919;45.816;3.104;2023-11-21T01:20:36;97550.16;;;8.43;89.11
61039;BME280;46919;45.816;3.104;2023-11-21T01:23:02;97563.38;;;8.51;88.39
61039;BME280;46919;45.816;3.104;2023-11-21T01:25:27;97554.22;;;8.59;87.74
61039;BME280;46919;45.816;3.104;2023-11-21T01:27:53;97551.69;;;8.64;87.72
61039;BME280;46919;45.816;3.104;2023-11-21T01:30:18;97557.44;;;8.67;88.03
61039;BME280;46919;45.816;3.104;2023-11-21T01:32:44;97557.00;;;8.70;87.96
61039;BME280;46919;45.816;3.104;2023-11-21T01:35:09;97544.97;;;8.73;87.83
61039;BME280;46919;45.816;3.104;2023-11-21T01:37:36;97553.66;;;8.75;87.93
61039;BME280;46919;45.816;3.104;2023-11-21T01:40:02;97544.53;;;8.76;87.65
61039;BME280;46919;45.816;3.104;2023-11-21T01:42:30;97539.66;;;8.85;87.00
61039;BME280;46919;45.816;3.104;2023-11-21T01:44:55;97545.31;;;8.83;87.11
61039;BME280;46919;45.816;3.104;2023-11-21T01:47:21;97542.34;;;8.85;86.82
61039;BME280;46919;45.816;3.104;2023-11-21T01:49:46;97545.22;;;8.90;86.48
61039;BME280;46919;45.816;3.104;2023-11-21T01:52:13;97547.78;;;9.03;85.52
61039;BME280;46919;45.816;3.104;2023-11-21T01:54:40;97548.38;;;9.05;85.37
61039;BME280;46919;45.816;3.104;2023-11-21T01:57:06;97539.25;;;9.06;85.05
61039;BME280;46919;45.816;3.104;2023-11-21T01:59:37;97545.09;;;9.03;85.16
61039;BME280;46919;45.816;3.104;2023-11-21T02:02:06;97544.50;;;9.01;85.61
61039;BME280;46919;45.816;3.104;2023-11-21T02:04:35;97556.75;;;8.97;85.86
61039;BME280;46919;45.816;3.104;2023-11-21T02:07:02;97543.72;;;8.94;86.21
61039;BME280;46919;45.816;3.104;2023-11-21T02:09:31;97549.63;;;8.84;87.69
61039;BME280;46919;45.816;3.104;2023-11-21T02:11:56;97528.50;;;8.81;87.96
61039;BME280;46919;45.816;3.104;2023-11-21T02:14:24;97552.25;;;8.91;87.75
61039;BME280;46919;45.816;3.104;2023-11-21T02:16:52;97528.09;;;9.03;86.46
61039;BME280;46919;45.816;3.104;2023-11-21T02:19:19;97542.03;;;9.00;87.65
61039;BME280;46919;45.816;3.104;2023-11-21T02:21:49;97530.03;;;8.96;87.66
61039;BME280;46919;45.816;3.104;2023-11-21T02:24:15;97545.16;;;8.97;87.86
61039;BME280;46919;45.816;3.104;2023-11-21T02:26:40;97542.25;;;8.98;87.61
61039;BME280;46919;45.816;3.104;2023-11-21T02:29:06;97542.59;;;9.02;86.76
61039;BME280;46919;45.816;3.104;2023-11-21T02:31:36;97542.25;;;8.98;87.49
61039;BME280;46919;45.816;3.104;2023-11-21T02:34:02;97539.78;;;8.97;88.16
61039;BME280;46919;45.816;3.104;2023-11-21T02:36:28;97536.94;;;8.92;88.49
61039;BME280;46919;45.816;3.104;2023-11-21T02:38:53;97532.94;;;8.94;88.78
61039;BME280;46919;45.816;3.104;2023-11-21T02:41:19;97528.22;;;8.89;88.97
61039;BME280;46919;45.816;3.104;2023-11-21T02:43:44;97530.91;;;8.89;88.99
61039;BME280;46919;45.816;3.104;2023-11-21T02:46:09;97533.25;;;8.86;89.31
61039;BME280;46919;45.816;3.104;2023-11-21T02:48:35;97528.28;;;8.83;89.73
61039;BME280;46919;45.816;3.104;2023-11-21T02:51:01;97529.56;;;8.80;89.82
61039;BME280;46919;45.816;3.104;2023-11-21T02:53:26;97534.78;;;8.75;91.18
61039;BME280;46919;45.816;3.104;2023-11-21T02:55:52;97531.34;;;8.68;92.85
61039;BME280;46919;45.816;3.104;2023-11-21T02:58:17;97522.25;;;8.62;93.83
61039;BME280;46919;45.816;3.104;2023-11-21T03:00:42;97517.72;;;8.63;94.62
61039;BME280;46919;45.816;3.104;2023-11-21T03:03:08;97521.00;;;8.65;94.69
61039;BME280;46919;45.816;3.104;2023-11-21T03:05:33;97523.94;;;8.63;95.38
61039;BME280;46919;45.816;3.104;2023-11-21T03:08:00;97521.44;;;8.62;96.04
61039;BME280;46919;45.816;3.104;2023-11-21T03:10:26;97521.88;;;8.59;96.97
61039;BME280;46919;45.816;3.104;2023-11-21T03:12:52;97526.69;;;8.57;97.20
61039;BME280;46919;45.816;3.104;2023-11-21T03:15:17;97526.06;;;8.55;97.75
61039;BME280;46919;45.816;3.104;2023-11-21T03:17:43;97524.47;;;8.47;98.99
61039;BME280;46919;45.816;3.104;2023-11-21T03:20:09;97522.84;;;8.46;99.12
61039;BME280;46919;45.816;3.104;2023-11-21T03:22:36;97530.69;;;8.47;99.50
61039;BME280;46919;45.816;3.104;2023-11-21T03:25:02;97532.56;;;8.40;100.00
61039;BME280;46919;45.816;3.104;2023-11-21T03:27:28;97528.25;;;8.39;100.00
61039;BME280;46919;45.816;3.104;2023-11-21T03:29:53;97517.47;;;8.39;100.00
61039;BME280;46919;45.816;3.104;2023-11-21T03:32:19;97525.16;;;8.35;100.00
61039;BME280;46919;45.816;3.104;2023-11-21T03:34:56;97524.94;;;8.37;100.00
61039;BME280;46919;45.816;3.104;2023-11-21T03:37:23;97512.34;;;8.31;100.00
61039;BME280;46919;45.816;3.104;2023-11-21T03:39:48;97517.13;;;8.29;100.00
61039;BME280;46919;45.816;3.104;2023-11-21T03:42:14;97506.38;;;8.29;100.00
61039;BME280;46919;45.816;3.104;2023-11-21T03:44:39;97504.09;;;8.26;100.00
61039;BME280;46919;45.816;3.104;2023-11-21T03:47:05;97506.47;;;8.15;100.00
61039;BME280;46919;45.816;3.104;2023-11-21T03:49:30;97516.84;;;8.12;100.00
61039;BME280;46919;45.816;3.104;2023-11-21T03:51:56;97514.81;;;8.07;100.00
61039;BME280;46919;45.816;3.104;2023-11-21T03:54:21;97512.56;;;8.04;100.00
61039;BME280;46919;45.816;3.104;2023-11-21T03:56:46;97504.09;;;8.01;100.00
61039;BME280;46919;45.816;3.104;2023-11-21T03:59:12;97509.09;;;7.97;100.00
61039;BME280;46919;45.816;3.104;2023-11-21T04:01:37;97507.22;;;7.97;100.00
61039;BME280;46919;45.816;3.104;2023-11-21T04:04:03;97506.81;;;7.94;100.00
61039;BME280;46919;45.816;3.104;2023-11-21T04:06:29;97515.34;;;7.91;100.00
61039;BME280;46919;45.816;3.104;2023-11-21T04:08:54;97510.38;;;7.88;100.00
61039;BME280;46919;45.816;3.104;2023-11-21T04:11:20;97510.59;;;7.86;100.00
61039;BME280;46919;45.816;3.104;2023-11-21T04:13:45;97523.88;;;7.81;100.00
61039;BME280;46919;45.816;3.104;2023-11-21T04:16:12;97527.22;;;7.76;100.00
61039;BME280;46919;45.816;3.104;2023-11-21T04:18:38;97522.88;;;7.75;100.00
61039;BME280;46919;45.816;3.104;2023-11-21T04:21:05;97524.09;;;7.79;100.00
61039;BME280;46919;45.816;3.104;2023-11-21T04:23:30;97525.75;;;7.80;100.00
61039;BME280;46919;45.816;3.104;2023-11-21T04:25:57;97530.91;;;7.82;100.00
61039;BME280;46919;45.816;3.104;2023-11-21T04:28:23;97534.44;;;7.83;100.00
61039;BME280;46919;45.816;3.104;2023-11-21T04:30:49;97538.16;;;7.82;100.00
61039;BME280;46919;45.816;3.104;2023-11-21T04:33:15;97534.22;;;7.84;100.00
61039;BME280;46919;45.816;3.104;2023-11-21T04:35:41;97526.53;;;7.88;100.00
61039;BME280;46919;45.816;3.104;2023-11-21T04:38:06;97524.69;;;7.82;100.00
61039;BME280;46919;45.816;3.104;2023-11-21T04:40:32;97530.28;;;7.80;100.00
61039;BME280;46919;45.816;3.104;2023-11-21T04:42:57;97526.19;;;7.77;100.00
61039;BME280;46919;45.816;3.104;2023-11-21T04:45:23;97524.97;;;7.73;100.00
61039;BME280;46919;45.816;3.104;2023-11-21T04:47:48;97528.66;;;7.79;100.00
61039;BME280;46919;45.816;3.104;2023-11-21T04:50:14;97531.53;;;7.84;100.00
61039;BME280;46919;45.816;3.104;2023-11-21T04:52:39;97528.19;;;7.89;100.00
61039;BME280;46919;45.816;3.104;2023-11-21T04:55:05;97532.75;;;7.88;100.00
61039;BME280;46919;45.816;3.104;2023-11-21T04:57:35;97533.56;;;7.89;100.00
61039;BME280;46919;45.816;3.104;2023-11-21T05:00:00;97524.91;;;7.87;100.00
61039;BME280;46919;45.816;3.104;2023-11-21T05:02:25;97528.63;;;7.86;100.00
61039;BME280;46919;45.816;3.104;2023-11-21T05:04:51;97523.66;;;7.83;100.00
61039;BME280;46919;45.816;3.104;2023-11-21T05:07:16;97531.56;;;7.77;100.00
61039;BME280;46919;45.816;3.104;2023-11-21T05:09:42;97533.41;;;7.77;100.00
61039;BME280;46919;45.816;3.104;2023-11-21T05:12:09;97531.56;;;7.77;100.00
61039;BME280;46919;45.816;3.104;2023-11-21T05:14:35;97533.19;;;7.78;100.00
61039;BME280;46919;45.816;3.104;2023-11-21T05:17:00;97539.22;;;7.74;100.00
61039;BME280;46919;45.816;3.104;2023-11-21T05:19:26;97524.56;;;7.70;100.00
61039;BME280;46919;45.816;3.104;2023-11-21T05:21:52;97528.72;;;7.66;100.00
61039;BME280;46919;45.816;3.104;2023-11-21T05:24:17;97532.25;;;7.66;100.00
61039;BME280;46919;45.816;3.104;2023-11-21T05:26:43;97540.31;;;7.66;100.00
61039;BME280;46919;45.816;3.104;2023-11-21T05:29:08;97541.94;;;7.67;100.00
61039;BME280;46919;45.816;3.104;2023-11-21T05:31:36;97533.88;;;7.67;100.00
61039;BME280;46919;45.816;3.104;2023-11-21T05:34:01;97539.69;;;7.64;100.00
61039;BME280;46919;45.816;3.104;2023-11-21T05:36:26;97537.44;;;7.61;100.00
61039;BME280;46919;45.816;3.104;2023-11-21T05:38:52;97540.53;;;7.65;100.00
61039;BME280;46919;45.816;3.104;2023-11-21T05:41:17;97550.88;;;7.61;100.00
61039;BME280;46919;45.816;3.104;2023-11-21T05:43:43;97544.69;;;7.60;100.00
61039;BME280;46919;45.816;3.104;2023-11-21T05:46:09;97547.75;;;7.64;100.00
61039;BME280;46919;45.816;3.104;2023-11-21T05:48:34;97566.38;;;7.66;100.00
61039;BME280;46919;45.816;3.104;2023-11-21T05:51:04;97563.69;;;7.66;100.00
61039;BME280;46919;45.816;3.104;2023-11-21T05:53:29;97563.06;;;7.64;100.00
61039;BME280;46919;45.816;3.104;2023-11-21T05:55:55;97568.06;;;7.60;100.00
61039;BME280;46919;45.816;3.104;2023-11-21T05:58:21;97584.00;;;7.55;100.00
61039;BME280;46919;45.816;3.104;2023-11-21T06:00:46;97593.53;;;7.51;100.00
61039;BME280;46919;45.816;3.104;2023-11-21T06:03:11;97604.09;;;7.52;100.00
61039;BME280;46919;45.816;3.104;2023-11-21T06:05:37;97610.09;;;7.48;100.00
61039;BME280;46919;45.816;3.104;2023-11-21T06:08:03;97606.59;;;7.47;100.00
61039;BME280;46919;45.816;3.104;2023-11-21T06:10:29;97613.59;;;7.48;100.00
61039;BME280;46919;45.816;3.104;2023-11-21T06:12:54;97607.59;;;7.53;100.00
61039;BME280;46919;45.816;3.104;2023-11-21T06:15:20;97619.59;;;7.57;100.00
61039;BME280;46919;45.816;3.104;2023-11-21T06:17:47;97616.09;;;7.50;100.00
61039;BME280;46919;45.816;3.104;2023-11-21T06:20:17;97616.13;;;7.43;100.00
61039;BME280;46919;45.816;3.104;2023-11-21T06:22:48;97626.03;;;7.36;100.00
61039;BME280;46919;45.816;3.104;2023-11-21T06:25:14;97628.34;;;7.32;100.00
61039;BME280;46919;45.816;3.104;2023-11-21T06:27:41;97632.91;;;7.32;100.00
61039;BME280;46919;45.816;3.104;2023-11-21T06:30:08;97636.59;;;7.31;100.00
61039;BME280;46919;45.816;3.104;2023-11-21T06:32:37;97638.06;;;7.33;100.00
61039;BME280;46919;45.816;3.104;2023-11-21T06:35:03;97646.31;;;7.38;100.00
61039;BME280;46919;45.816;3.104;2023-11-21T06:37:29;97644.22;;;7.40;100.00
61039;BME280;46919;45.816;3.104;2023-11-21T06:39:56;97641.97;;;7.44;100.00
61039;BME280;46919;45.816;3.104;2023-11-21T06:42:22;97646.28;;;7.45;100.00
61039;BME280;46919;45.816;3.104;2023-11-21T06:44:47;97652.09;;;7.49;100.00
61039;BME280;46919;45.816;3.104;2023-11-21T06:47:14;97654.78;;;7.49;100.00
61039;BME280;46919;45.816;3.104;2023-11-21T06:49:40;97658.09;;;7.51;100.00
61039;BME280;46919;45.816;3.104;2023-11-21T06:52:06;97653.31;;;7.53;100.00
61039;BME280;46919;45.816;3.104;2023-11-21T06:54:31;97661.97;;;7.55;100.00
61039;BME280;46919;45.816;3.104;2023-11-21T06:56:58;97670.69;;;7.57;100.00
61039;BME280;46919;45.816;3.104;2023-11-21T06:59:23;97664.03;;;7.59;100.00
61039;BME280;46919;45.816;3.104;2023-11-21T07:01:49;97664.25;;;7.58;100.00
61039;BME280;46919;45.816;3.104;2023-11-21T07:04:14;97672.09;;;7.59;100.00
61039;BME280;46919;45.816;3.104;2023-11-21T07:06:40;97677.69;;;7.58;100.00
61039;BME280;46919;45.816;3.104;2023-11-21T07:09:06;97684.75;;;7.59;100.00
61039;BME280;46919;45.816;3.104;2023-11-21T07:11:33;97673.97;;;7.59;100.00
61039;BME280;46919;45.816;3.104;2023-11-21T07:13:59;97680.38;;;7.58;100.00
61039;BME280;46919;45.816;3.104;2023-11-21T07:16:24;97682.66;;;7.61;100.00
61039;BME280;46919;45.816;3.104;2023-11-21T07:18:50;97678.72;;;7.70;100.00
61039;BME280;46919;45.816;3.104;2023-11-21T07:21:16;97678.91;;;7.69;100.00
61039;BME280;46919;45.816;3.104;2023-11-21T07:23:41;97685.50;;;7.79;100.00
61039;BME280;46919;45.816;3.104;2023-11-21T07:26:07;97680.13;;;7.79;100.00
61039;BME280;46919;45.816;3.104;2023-11-21T07:28:34;97681.78;;;7.80;100.00
61039;BME280;46919;45.816;3.104;2023-11-21T07:30:59;97685.50;;;7.79;100.00
61039;BME280;46919;45.816;3.104;2023-11-21T07:33:25;97686.53;;;7.78;100.00
61039;BME280;46919;45.816;3.104;2023-11-21T07:35:51;97684.91;;;7.77;100.00
61039;BME280;46919;45.816;3.104;2023-11-21T07:38:17;97678.88;;;7.75;100.00
61039;BME280;46919;45.816;3.104;2023-11-21T07:40:43;97703.09;;;7.75;100.00
61039;BME280;46919;45.816;3.104;2023-11-21T07:43:08;97701.47;;;7.74;100.00
61039;BME280;46919;45.816;3.104;2023-11-21T07:45:34;97700.41;;;7.75;100.00
61039;BME280;46919;45.816;3.104;2023-11-21T07:47:59;97709.34;;;7.76;100.00
61039;BME280;46919;45.816;3.104;2023-11-21T07:50:28;97715.53;;;7.76;100.00
61039;BME280;46919;45.816;3.104;2023-11-21T07:52:53;97719.03;;;7.77;100.00
61039;BME280;46919;45.816;3.104;2023-11-21T07:55:19;97717.78;;;7.79;100.00
61039;BME280;46919;45.816;3.104;2023-11-21T07:57:45;97717.38;;;7.83;100.00
61039;BME280;46919;45.816;3.104;2023-11-21T08:00:11;97715.94;;;7.87;100.00
61039;BME280;46919;45.816;3.104;2023-11-21T08:02:38;97724.59;;;7.89;100.00
61039;BME280;46919;45.816;3.104;2023-11-21T08:05:04;97716.53;;;7.89;100.00
61039;BME280;46919;45.816;3.104;2023-11-21T08:07:30;97713.22;;;7.93;100.00
61039;BME280;46919;45.816;3.104;2023-11-21T08:09:56;97711.13;;;7.95;100.00
61039;BME280;46919;45.816;3.104;2023-11-21T08:12:21;97716.91;;;7.99;100.00
61039;BME280;46919;45.816;3.104;2023-11-21T08:14:47;97714.84;;;8.01;100.00
61039;BME280;46919;45.816;3.104;2023-11-21T08:17:12;97714.84;;;8.01;100.00
61039;BME280;46919;45.816;3.104;2023-11-21T08:19:39;97718.91;;;8.10;100.00
61039;BME280;46919;45.816;3.104;2023-11-21T08:22:04;97715.16;;;8.18;100.00
61039;BME280;46919;45.816;3.104;2023-11-21T08:24:32;97717.22;;;8.23;100.00
61039;BME280;46919;45.816;3.104;2023-11-21T08:26:58;97717.59;;;8.33;100.00
61039;BME280;46919;45.816;3.104;2023-11-21T08:29:23;97718.00;;;8.37;100.00
61039;BME280;46919;45.816;3.104;2023-11-21T08:31:49;97718.38;;;8.40;100.00
61039;BME280;46919;45.816;3.104;2023-11-21T08:34:14;97716.94;;;8.44;100.00
61039;BME280;46919;45.816;3.104;2023-11-21T08:36:43;97719.59;;;8.51;100.00
61039;BME280;46919;45.816;3.104;2023-11-21T08:39:09;97722.88;;;8.60;100.00
61039;BME280;46919;45.816;3.104;2023-11-21T08:41:35;97726.41;;;8.60;100.00
61039;BME280;46919;45.816;3.104;2023-11-21T08:44:02;97725.78;;;8.58;100.00
61039;BME280;46919;45.816;3.104;2023-11-21T08:46:32;97728.28;;;8.60;100.00
61039;BME280;46919;45.816;3.104;2023-11-21T08:48:58;97724.94;;;8.64;100.00
61039;BME280;46919;45.816;3.104;2023-11-21T08:51:24;97720.56;;;8.63;100.00
61039;BME280;46919;45.816;3.104;2023-11-21T08:53:50;97719.94;;;8.68;100.00
61039;BME280;46919;45.816;3.104;2023-11-21T08:56:15;97718.66;;;8.70;100.00
61039;BME280;46919;45.816;3.104;2023-11-21T08:58:40;97724.88;;;8.71;100.00
61039;BME280;46919;45.816;3.104;2023-11-21T09:01:06;97717.25;;;8.68;100.00
61039;BME280;46919;45.816;3.104;2023-11-21T09:03:32;97718.22;;;8.74;100.00
61039;BME280;46919;45.816;3.104;2023-11-21T09:06:00;97721.50;;;8.82;100.00
61039;BME280;46919;45.816;3.104;2023-11-21T09:08:25;97717.34;;;8.80;100.00
61039;BME280;46919;45.816;3.104;2023-11-21T09:10:53;97726.22;;;8.87;100.00
61039;BME280;46919;45.816;3.104;2023-11-21T09:13:18;97732.00;;;8.91;100.00
61039;BME280;46919;45.816;3.104;2023-11-21T09:15:44;97734.88;;;8.96;100.00
61039;BME280;46919;45.816;3.104;2023-11-21T09:18:13;97739.00;;;8.98;100.00
61039;BME280;46919;45.816;3.104;2023-11-21T09:20:38;97729.19;;;9.04;100.00
61039;BME280;46919;45.816;3.104;2023-11-21T09:23:04;97736.63;;;9.09;100.00
61039;BME280;46919;45.816;3.104;2023-11-21T09:25:29;97730.59;;;9.13;100.00
61039;BME280;46919;45.816;3.104;2023-11-21T09:27:54;97734.06;;;9.20;100.00
61039;BME280;46919;45.816;3.104;2023-11-21T09:30:21;97724.03;;;9.28;100.00
61039;BME280;46919;45.816;3.104;2023-11-21T09:32:46;97732.53;;;9.31;100.00
61039;BME280;46919;45.816;3.104;2023-11-21T09:35:12;97733.88;;;9.40;99.76
61039;BME280;46919;45.816;3.104;2023-11-21T09:37:39;97730.53;;;9.45;98.42
61039;BME280;46919;45.816;3.104;2023-11-21T09:40:06;97733.19;;;9.52;98.46
61039;BME280;46919;45.816;3.104;2023-11-21T09:42:49;97736.25;;;9.55;98.30
61039;BME280;46919;45.816;3.104;2023-11-21T09:45:32;97734.53;;;9.61;97.31
61039;BME280;46919;45.816;3.104;2023-11-21T09:48:00;97735.97;;;9.64;97.26
61039;BME280;46919;45.816;3.104;2023-11-21T09:50:26;97731.78;;;9.68;94.81
61039;BME280;46919;45.816;3.104;2023-11-21T09:53:16;97733.19;;;9.70;94.15
61039;BME280;46919;45.816;3.104;2023-11-21T09:55:45;97734.72;;;9.66;94.76
61039;BME280;46919;45.816;3.104;2023-11-21T09:58:13;97731.56;;;9.69;95.28
61039;BME280;46919;45.816;3.104;2023-11-21T10:00:49;97726.09;;;9.76;92.76
61039;BME280;46919;45.816;3.104;2023-11-21T10:03:15;97732.75;;;9.73;93.09
61039;BME280;46919;45.816;3.104;2023-11-21T10:05:45;97730.06;;;9.92;92.68
61039;BME280;46919;45.816;3.104;2023-11-21T10:08:15;97723.94;;;10.22;90.76
61039;BME280;46919;45.816;3.104;2023-11-21T10:10:44;97727.28;;;10.36;89.31
61039;BME280;46919;45.816;3.104;2023-11-21T10:13:12;97731.72;;;10.48;89.56
61039;BME280;46919;45.816;3.104;2023-11-21T10:15:38;97730.19;;;10.52;89.59
61039;BME280;46919;45.816;3.104;2023-11-21T10:18:05;97737.97;;;10.61;88.83
61039;BME280;46919;45.816;3.104;2023-11-21T10:20:32;97734.25;;;10.62;87.85
61039;BME280;46919;45.816;3.104;2023-11-21T10:22:59;97729.81;;;10.67;86.32
61039;BME280;46919;45.816;3.104;2023-11-21T10:25:26;97727.81;;;10.75;87.31
61039;BME280;46919;45.816;3.104;2023-11-21T10:27:57;97728.41;;;10.77;87.52
61039;BME280;46919;45.816;3.104;2023-11-21T10:30:30;97720.34;;;10.88;87.54
61039;BME280;46919;45.816;3.104;2023-11-21T10:33:01;97715.28;;;10.80;86.15
61039;BME280;46919;45.816;3.104;2023-11-21T10:38:06;97726.16;;;10.74;86.42
61039;BME280;46919;45.816;3.104;2023-11-21T10:40:37;97720.28;;;10.77;86.50
61039;BME280;46919;45.816;3.104;2023-11-21T10:43:10;97726.16;;;10.74;86.59
61039;BME280;46919;45.816;3.104;2023-11-21T10:45:39;97722.28;;;10.69;86.50
61039;BME280;46919;45.816;3.104;2023-11-21T10:48:14;97721.25;;;10.71;86.51
61039;BME280;46919;45.816;3.104;2023-11-21T10:50:44;97722.53;;;10.68;87.70
61039;BME280;46919;45.816;3.104;2023-11-21T10:53:10;97719.50;;;10.46;88.01
61039;BME280;46919;45.816;3.104;2023-11-21T10:55:37;97728.06;;;10.43;88.32
61039;BME280;46919;45.816;3.104;2023-11-21T10:58:03;97720.25;;;10.35;89.00
61039;BME280;46919;45.816;3.104;2023-11-21T11:00:31;97727.06;;;10.37;90.07
61039;BME280;46919;45.816;3.104;2023-11-21T11:02:57;97722.66;;;10.43;90.23
61039;BME280;46919;45.816;3.104;2023-11-21T11:05:25;97723.34;;;10.68;89.85
61039;BME280;46919;45.816;3.104;2023-11-21T11:08:25;97724.78;;;10.83;89.49
61039;BME280;46919;45.816;3.104;2023-11-21T11:10:45;97719.75;;;10.86;88.66
61039;BME280;46919;45.816;3.104;2023-11-21T11:13:13;97713.03;;;10.77;88.00
61039;BME280;46919;45.816;3.104;2023-11-21T11:15:40;97710.28;;;10.65;88.16
61039;BME280;46919;45.816;3.104;2023-11-21T11:18:06;97710.88;;;10.67;87.43
61039;BME280;46919;45.816;3.104;2023-11-21T11:20:36;97699.09;;;10.62;87.03
61039;BME280;46919;45.816;3.104;2023-11-21T11:31:39;97698.44;;;10.78;85.53
61039;BME280;46919;45.816;3.104;2023-11-21T11:36:49;97699.94;;;11.04;83.80
61039;BME280;46919;45.816;3.104;2023-11-21T11:39:39;97689.34;;;11.15;81.29
61039;BME280;46919;45.816;3.104;2023-11-21T11:42:08;97690.66;;;11.12;82.17
61039;BME280;46919;45.816;3.104;2023-11-21T11:47:22;97707.00;;;11.05;79.93
61039;BME280;46919;45.816;3.104;2023-11-21T11:50:12;97704.38;;;10.99;80.07
61039;BME280;46919;45.816;3.104;2023-11-21T11:55:15;97706.53;;;11.09;80.67
61039;BME280;46919;45.816;3.104;2023-11-21T11:57:46;97716.50;;;11.08;81.42
61039;BME280;46919;45.816;3.104;2023-11-21T12:02:55;97728.53;;;11.12;80.71
61039;BME280;46919;45.816;3.104;2023-11-21T12:05:25;97723.22;;;11.05;81.01
61039;BME280;46919;45.816;3.104;2023-11-21T12:07:57;97718.50;;;11.13;81.89
61039;BME280;46919;45.816;3.104;2023-11-21T12:10:30;97727.81;;;11.17;82.01
61039;BME280;46919;45.816;3.104;2023-11-21T12:13:00;97725.69;;;11.07;82.20
61039;BME280;46919;45.816;3.104;2023-11-21T12:15:26;97729.56;;;10.99;82.87
61039;BME280;46919;45.816;3.104;2023-11-21T12:17:54;97727.53;;;10.95;82.53
61039;BME280;46919;45.816;3.104;2023-11-21T12:20:24;97728.69;;;10.87;81.59
61039;BME280;46919;45.816;3.104;2023-11-21T12:22:54;97725.88;;;10.82;82.45
61039;BME280;46919;45.816;3.104;2023-11-21T12:25:25;97728.81;;;10.92;82.77
61039;BME280;46919;45.816;3.104;2023-11-21T12:27:54;97738.13;;;10.96;82.97
61039;BME280;46919;45.816;3.104;2023-11-21T12:30:22;97732.03;;;11.01;83.14
61039;BME280;46919;45.816;3.104;2023-11-21T12:32:52;97724.38;;;11.10;82.17
61039;BME280;46919;45.816;3.104;2023-11-21T12:35:19;97724.84;;;11.06;82.14
61039;BME280;46919;45.816;3.104;2023-11-21T12:37:46;97732.63;;;11.15;82.02
61039;BME280;46919;45.816;3.104;2023-11-21T12:40:12;97734.41;;;11.21;82.34
61039;BME280;46919;45.816;3.104;2023-11-21T12:42:47;97732.38;;;11.16;82.38
61039;BME280;46919;45.816;3.104;2023-11-21T12:48:01;97741.63;;;10.85;82.60
61039;BME280;46919;45.816;3.104;2023-11-21T12:50:30;97741.34;;;10.75;82.05
61039;BME280;46919;45.816;3.104;2023-11-21T12:53:10;97743.78;;;10.64;82.19
61039;BME280;46919;45.816;3.104;2023-11-21T12:55:41;97735.50;;;10.59;82.87
61039;BME280;46919;45.816;3.104;2023-11-21T12:58:09;97743.31;;;10.67;83.27
61039;BME280;46919;45.816;3.104;2023-11-21T13:00:44;97747.97;;;10.60;82.61
61039;BME280;46919;45.816;3.104;2023-11-21T13:03:11;97740.19;;;10.52;83.09
61039;BME280;46919;45.816;3.104;2023-11-21T13:05:46;97748.00;;;10.42;83.15
61039;BME280;46919;45.816;3.104;2023-11-21T13:08:12;97748.44;;;10.39;83.01
61039;BME280;46919;45.816;3.104;2023-11-21T13:10:43;97744.84;;;10.45;83.21
61039;BME280;46919;45.816;3.104;2023-11-21T13:13:11;97744.78;;;10.51;83.77
61039;BME280;46919;45.816;3.104;2023-11-21T13:15:50;97747.16;;;10.60;83.94
61039;BME280;46919;45.816;3.104;2023-11-21T13:18:16;97748.34;;;10.64;84.26
61039;BME280;46919;45.816;3.104;2023-11-21T13:20:42;97748.50;;;10.69;84.26
61039;BME280;46919;45.816;3.104;2023-11-21T13:23:09;97748.00;;;10.72;84.43
61039;BME280;46919;45.816;3.104;2023-11-21T13:25:37;97754.38;;;10.66;83.87